logo
Search for airport 
image banner adimage banner adimage banner ad
image banner ad

EICN - Coonagh

Located in , Ireland

ICAO - EICN, IATA -

Data provided by Airmate  

General information

Coordinates: N52°39'59" W8°40'55"
Elevation is 6 feet MSL.
Magnetic variation is -5° East
View others Airports in County Limerick

Operational data

Special qualification required
Current time UTC:
Current local time:
Weather at : EINN - Shannon ( 17 km )
METAR: EINN 130630Z 20011KT 9999 FEW010 SCT060 BKN190 12/09 Q1017 NOSIG
TAF: TAF EINN 130500Z 1306/1406 19010KT 9999 FEW010 BKN020 BECMG 1307/1309 23015KT TEMPO 1308/1310 23016G27KT 4000 SHRA BKN012 BECMG 1309/1311 27017G28KT BECMG 1318/1320 24010KT
View NOTAMs / SUP AIP / TFR affecting this airport [VIEW]
Communications frequencies: [VIEW]

Runways:

RWY identifierQFULength (ft)Width (ft)SurfaceLDA (ft)
10136530BITUM1365
28136530BITUM1312

Airport contact information

Address: Ireland

Other aviation service providers

Aviation club (not for profit)

Limerick Flying Club

Limerick Flying Club
brendanbeegan@gmail.com+35361326600
+353876380755

Satellite view of EICN